sensor_id;sensor_type;location;lat;lon;timestamp;P1;durP1;ratioP1;P2;durP2;ratioP2
7835;SDS011;3963;42.658;23.298;2022-11-15T00:00:46;50.63;;;23.97;;
7835;SDS011;3963;42.658;23.298;2022-11-15T00:03:14;50.07;;;24.70;;
7835;SDS011;3963;42.658;23.298;2022-11-15T00:05:41;47.77;;;25.93;;
7835;SDS011;3963;42.658;23.298;2022-11-15T00:08:09;49.73;;;25.20;;
7835;SDS011;3963;42.658;23.298;2022-11-15T00:10:36;49.87;;;25.47;;
7835;SDS011;3963;42.658;23.298;2022-11-15T00:13:04;53.97;;;25.47;;
7835;SDS011;3963;42.658;23.298;2022-11-15T00:15:34;50.13;;;25.37;;
7835;SDS011;3963;42.658;23.298;2022-11-15T00:18:01;45.77;;;24.60;;
7835;SDS011;3963;42.658;23.298;2022-11-15T00:20:30;48.07;;;25.03;;
7835;SDS011;3963;42.658;23.298;2022-11-15T00:22:57;55.00;;;27.77;;
7835;SDS011;3963;42.658;23.298;2022-11-15T00:25:24;47.00;;;25.23;;
7835;SDS011;3963;42.658;23.298;2022-11-15T00:27:54;52.33;;;27.07;;
7835;SDS011;3963;42.658;23.298;2022-11-15T00:30:21;54.20;;;28.37;;
7835;SDS011;3963;42.658;23.298;2022-11-15T00:32:49;48.63;;;26.90;;
7835;SDS011;3963;42.658;23.298;2022-11-15T00:35:15;54.03;;;27.47;;
7835;SDS011;3963;42.658;23.298;2022-11-15T00:37:44;54.00;;;26.43;;
7835;SDS011;3963;42.658;23.298;2022-11-15T00:40:12;47.60;;;26.37;;
7835;SDS011;3963;42.658;23.298;2022-11-15T00:42:39;49.23;;;26.83;;
7835;SDS011;3963;42.658;23.298;2022-11-15T00:45:06;47.67;;;26.47;;
7835;SDS011;3963;42.658;23.298;2022-11-15T00:47:34;55.63;;;28.87;;
7835;SDS011;3963;42.658;23.298;2022-11-15T00:50:01;54.33;;;26.97;;
7835;SDS011;3963;42.658;23.298;2022-11-15T00:52:27;50.57;;;28.90;;
7835;SDS011;3963;42.658;23.298;2022-11-15T00:54:55;50.83;;;27.90;;
7835;SDS011;3963;42.658;23.298;2022-11-15T00:57:23;53.87;;;28.50;;
7835;SDS011;3963;42.658;23.298;2022-11-15T00:59:50;52.13;;;26.70;;
7835;SDS011;3963;42.658;23.298;2022-11-15T01:02:17;57.77;;;30.00;;
7835;SDS011;3963;42.658;23.298;2022-11-15T01:04:43;56.33;;;28.37;;
7835;SDS011;3963;42.658;23.298;2022-11-15T01:07:10;56.77;;;29.23;;
7835;SDS011;3963;42.658;23.298;2022-11-15T01:09:37;58.93;;;28.87;;
7835;SDS011;3963;42.658;23.298;2022-11-15T01:12:06;53.60;;;28.07;;
7835;SDS011;3963;42.658;23.298;2022-11-15T01:14:32;56.40;;;27.37;;
7835;SDS011;3963;42.658;23.298;2022-11-15T01:16:59;55.93;;;28.30;;
7835;SDS011;3963;42.658;23.298;2022-11-15T01:19:26;53.40;;;27.83;;
7835;SDS011;3963;42.658;23.298;2022-11-15T01:21:53;48.50;;;26.30;;
7835;SDS011;3963;42.658;23.298;2022-11-15T01:24:20;48.07;;;25.53;;
7835;SDS011;3963;42.658;23.298;2022-11-15T01:26:47;49.97;;;26.37;;
7835;SDS011;3963;42.658;23.298;2022-11-15T01:29:15;49.07;;;26.23;;
7835;SDS011;3963;42.658;23.298;2022-11-15T01:31:41;49.47;;;25.83;;
7835;SDS011;3963;42.658;23.298;2022-11-15T01:34:08;44.57;;;25.03;;
7835;SDS011;3963;42.658;23.298;2022-11-15T01:36:35;48.40;;;25.23;;
7835;SDS011;3963;42.658;23.298;2022-11-15T01:39:02;45.00;;;22.27;;
7835;SDS011;3963;42.658;23.298;2022-11-15T01:41:30;47.33;;;24.73;;
7835;SDS011;3963;42.658;23.298;2022-11-15T01:47:05;41.23;;;21.87;;
7835;SDS011;3963;42.658;23.298;2022-11-15T01:49:35;46.63;;;22.80;;
7835;SDS011;3963;42.658;23.298;2022-11-15T01:52:07;47.53;;;23.53;;
7835;SDS011;3963;42.658;23.298;2022-11-15T01:54:39;51.20;;;25.53;;
7835;SDS011;3963;42.658;23.298;2022-11-15T01:57:06;54.53;;;26.23;;
7835;SDS011;3963;42.658;23.298;2022-11-15T01:59:37;51.23;;;26.57;;
7835;SDS011;3963;42.658;23.298;2022-11-15T02:02:06;43.80;;;23.70;;
7835;SDS011;3963;42.658;23.298;2022-11-15T02:04:33;49.17;;;24.97;;
7835;SDS011;3963;42.658;23.298;2022-11-15T02:07:05;45.53;;;22.87;;
7835;SDS011;3963;42.658;23.298;2022-11-15T02:09:35;51.23;;;24.20;;
7835;SDS011;3963;42.658;23.298;2022-11-15T02:12:03;45.50;;;23.00;;
7835;SDS011;3963;42.658;23.298;2022-11-15T02:14:31;45.40;;;21.90;;
7835;SDS011;3963;42.658;23.298;2022-11-15T02:17:01;41.87;;;22.00;;
7835;SDS011;3963;42.658;23.298;2022-11-15T02:19:47;39.17;;;20.47;;
7835;SDS011;3963;42.658;23.298;2022-11-15T02:22:37;41.57;;;21.23;;
7835;SDS011;3963;42.658;23.298;2022-11-15T02:25:23;44.33;;;21.87;;
7835;SDS011;3963;42.658;23.298;2022-11-15T02:28:21;44.53;;;23.27;;
7835;SDS011;3963;42.658;23.298;2022-11-15T02:31:07;52.13;;;24.27;;
7835;SDS011;3963;42.658;23.298;2022-11-15T02:33:41;45.50;;;22.00;;
7835;SDS011;3963;42.658;23.298;2022-11-15T02:36:18;39.90;;;21.73;;
7835;SDS011;3963;42.658;23.298;2022-11-15T02:38:57;43.20;;;22.83;;
7835;SDS011;3963;42.658;23.298;2022-11-15T02:41:30;45.60;;;21.90;;
7835;SDS011;3963;42.658;23.298;2022-11-15T02:44:01;42.53;;;21.20;;
7835;SDS011;3963;42.658;23.298;2022-11-15T02:46:34;40.47;;;22.00;;
7835;SDS011;3963;42.658;23.298;2022-11-15T02:49:24;38.77;;;20.93;;
7835;SDS011;3963;42.658;23.298;2022-11-15T02:51:54;45.40;;;22.27;;
7835;SDS011;3963;42.658;23.298;2022-11-15T02:54:23;44.47;;;21.60;;
7835;SDS011;3963;42.658;23.298;2022-11-15T02:56:51;39.20;;;20.87;;
7835;SDS011;3963;42.658;23.298;2022-11-15T02:59:29;42.63;;;22.20;;
7835;SDS011;3963;42.658;23.298;2022-11-15T03:02:23;48.33;;;22.13;;
7835;SDS011;3963;42.658;23.298;2022-11-15T03:05:03;39.63;;;21.93;;
7835;SDS011;3963;42.658;23.298;2022-11-15T03:07:39;46.70;;;23.83;;
7835;SDS011;3963;42.658;23.298;2022-11-15T03:10:16;44.60;;;21.17;;
7835;SDS011;3963;42.658;23.298;2022-11-15T03:12:48;36.40;;;20.63;;
7835;SDS011;3963;42.658;23.298;2022-11-15T03:15:24;41.27;;;21.40;;
7835;SDS011;3963;42.658;23.298;2022-11-15T03:17:59;43.60;;;22.03;;
7835;SDS011;3963;42.658;23.298;2022-11-15T03:20:31;42.80;;;21.03;;
7835;SDS011;3963;42.658;23.298;2022-11-15T03:23:00;41.37;;;20.60;;
7835;SDS011;3963;42.658;23.298;2022-11-15T03:25:29;43.40;;;21.27;;
7835;SDS011;3963;42.658;23.298;2022-11-15T03:28:00;44.93;;;23.60;;
7835;SDS011;3963;42.658;23.298;2022-11-15T03:30:32;40.73;;;21.80;;
7835;SDS011;3963;42.658;23.298;2022-11-15T03:33:02;52.63;;;24.13;;
7835;SDS011;3963;42.658;23.298;2022-11-15T03:35:32;48.73;;;23.93;;
7835;SDS011;3963;42.658;23.298;2022-11-15T03:38:05;54.07;;;24.37;;
7835;SDS011;3963;42.658;23.298;2022-11-15T03:40:38;47.80;;;23.67;;
7835;SDS011;3963;42.658;23.298;2022-11-15T03:43:07;45.60;;;24.20;;
7835;SDS011;3963;42.658;23.298;2022-11-15T03:45:43;51.90;;;24.03;;
7835;SDS011;3963;42.658;23.298;2022-11-15T03:48:15;46.53;;;23.67;;
7835;SDS011;3963;42.658;23.298;2022-11-15T03:50:46;52.07;;;26.20;;
7835;SDS011;3963;42.658;23.298;2022-11-15T03:53:14;51.43;;;25.10;;
7835;SDS011;3963;42.658;23.298;2022-11-15T03:55:41;48.20;;;27.23;;
7835;SDS011;3963;42.658;23.298;2022-11-15T03:58:08;44.37;;;23.57;;
7835;SDS011;3963;42.658;23.298;2022-11-15T04:00:35;46.07;;;23.60;;
7835;SDS011;3963;42.658;23.298;2022-11-15T04:03:02;44.43;;;24.40;;
7835;SDS011;3963;42.658;23.298;2022-11-15T04:05:30;43.03;;;23.10;;
7835;SDS011;3963;42.658;23.298;2022-11-15T04:07:57;46.83;;;23.73;;
7835;SDS011;3963;42.658;23.298;2022-11-15T04:10:23;43.03;;;24.67;;
7835;SDS011;3963;42.658;23.298;2022-11-15T04:12:50;56.80;;;26.03;;
7835;SDS011;3963;42.658;23.298;2022-11-15T04:15:17;45.93;;;24.97;;
7835;SDS011;3963;42.658;23.298;2022-11-15T04:17:46;55.13;;;25.80;;
7835;SDS011;3963;42.658;23.298;2022-11-15T04:20:15;70.23;;;28.43;;
7835;SDS011;3963;42.658;23.298;2022-11-15T04:23:03;65.80;;;30.50;;
7835;SDS011;3963;42.658;23.298;2022-11-15T04:25:49;66.63;;;29.63;;
7835;SDS011;3963;42.658;23.298;2022-11-15T04:28:17;71.77;;;30.77;;
7835;SDS011;3963;42.658;23.298;2022-11-15T04:30:44;69.37;;;31.10;;
7835;SDS011;3963;42.658;23.298;2022-11-15T04:33:11;78.87;;;32.30;;
7835;SDS011;3963;42.658;23.298;2022-11-15T04:35:38;77.77;;;31.63;;
7835;SDS011;3963;42.658;23.298;2022-11-15T04:38:07;71.43;;;31.37;;
7835;SDS011;3963;42.658;23.298;2022-11-15T04:40:35;85.20;;;34.23;;
7835;SDS011;3963;42.658;23.298;2022-11-15T04:43:02;83.50;;;32.37;;
7835;SDS011;3963;42.658;23.298;2022-11-15T04:45:29;75.43;;;32.30;;
7835;SDS011;3963;42.658;23.298;2022-11-15T04:47:56;88.37;;;33.83;;
7835;SDS011;3963;42.658;23.298;2022-11-15T04:50:22;81.30;;;31.50;;
7835;SDS011;3963;42.658;23.298;2022-11-15T04:52:50;71.13;;;31.27;;
7835;SDS011;3963;42.658;23.298;2022-11-15T04:55:20;85.43;;;30.37;;
7835;SDS011;3963;42.658;23.298;2022-11-15T04:57:47;61.13;;;30.93;;
7835;SDS011;3963;42.658;23.298;2022-11-15T05:00:15;72.20;;;31.13;;
7835;SDS011;3963;42.658;23.298;2022-11-15T05:02:43;69.50;;;30.87;;
7835;SDS011;3963;42.658;23.298;2022-11-15T05:05:27;67.40;;;30.80;;
7835;SDS011;3963;42.658;23.298;2022-11-15T05:07:54;67.93;;;28.53;;
7835;SDS011;3963;42.658;23.298;2022-11-15T05:10:22;65.77;;;28.27;;
7835;SDS011;3963;42.658;23.298;2022-11-15T05:12:49;71.07;;;28.93;;
7835;SDS011;3963;42.658;23.298;2022-11-15T05:15:16;90.07;;;31.67;;
7835;SDS011;3963;42.658;23.298;2022-11-15T05:17:42;80.53;;;31.00;;
7835;SDS011;3963;42.658;23.298;2022-11-15T05:20:10;71.63;;;31.80;;
7835;SDS011;3963;42.658;23.298;2022-11-15T05:22:37;75.43;;;33.37;;
7835;SDS011;3963;42.658;23.298;2022-11-15T05:25:05;74.83;;;32.97;;
7835;SDS011;3963;42.658;23.298;2022-11-15T05:27:34;72.73;;;32.80;;
7835;SDS011;3963;42.658;23.298;2022-11-15T05:30:01;99.60;;;33.17;;
7835;SDS011;3963;42.658;23.298;2022-11-15T05:32:28;80.50;;;32.23;;
7835;SDS011;3963;42.658;23.298;2022-11-15T05:34:55;86.10;;;34.77;;
7835;SDS011;3963;42.658;23.298;2022-11-15T05:37:22;94.07;;;34.60;;
7835;SDS011;3963;42.658;23.298;2022-11-15T05:39:49;93.93;;;34.93;;
7835;SDS011;3963;42.658;23.298;2022-11-15T05:42:16;90.07;;;35.63;;
7835;SDS011;3963;42.658;23.298;2022-11-15T05:44:46;97.00;;;34.33;;
7835;SDS011;3963;42.658;23.298;2022-11-15T05:47:16;84.77;;;33.90;;
7835;SDS011;3963;42.658;23.298;2022-11-15T05:49:46;103.23;;;34.63;;
7835;SDS011;3963;42.658;23.298;2022-11-15T05:52:15;92.17;;;34.37;;
7835;SDS011;3963;42.658;23.298;2022-11-15T05:54:46;92.10;;;33.50;;
7835;SDS011;3963;42.658;23.298;2022-11-15T05:57:13;78.53;;;36.10;;
7835;SDS011;3963;42.658;23.298;2022-11-15T05:59:40;85.67;;;36.03;;
7835;SDS011;3963;42.658;23.298;2022-11-15T06:02:10;85.73;;;35.30;;
7835;SDS011;3963;42.658;23.298;2022-11-15T06:04:37;89.30;;;32.57;;
7835;SDS011;3963;42.658;23.298;2022-11-15T06:07:04;83.50;;;33.00;;
7835;SDS011;3963;42.658;23.298;2022-11-15T06:09:31;96.67;;;33.33;;
7835;SDS011;3963;42.658;23.298;2022-11-15T06:11:58;81.73;;;33.10;;
7835;SDS011;3963;42.658;23.298;2022-11-15T06:14:25;98.07;;;34.00;;
7835;SDS011;3963;42.658;23.298;2022-11-15T06:16:51;91.80;;;32.70;;
7835;SDS011;3963;42.658;23.298;2022-11-15T06:19:20;75.27;;;33.40;;
7835;SDS011;3963;42.658;23.298;2022-11-15T06:21:46;98.87;;;35.80;;
7835;SDS011;3963;42.658;23.298;2022-11-15T06:24:14;126.73;;;40.37;;
7835;SDS011;3963;42.658;23.298;2022-11-15T06:26:40;112.13;;;36.20;;
7835;SDS011;3963;42.658;23.298;2022-11-15T06:29:07;101.40;;;35.90;;
7835;SDS011;3963;42.658;23.298;2022-11-15T06:31:34;107.43;;;38.37;;
7835;SDS011;3963;42.658;23.298;2022-11-15T06:34:02;110.57;;;37.93;;
7835;SDS011;3963;42.658;23.298;2022-11-15T06:36:30;108.17;;;37.40;;
7835;SDS011;3963;42.658;23.298;2022-11-15T06:38:57;105.07;;;35.27;;
7835;SDS011;3963;42.658;23.298;2022-11-15T06:41:23;111.53;;;36.67;;
7835;SDS011;3963;42.658;23.298;2022-11-15T06:43:50;110.37;;;36.37;;
7835;SDS011;3963;42.658;23.298;2022-11-15T06:46:17;104.97;;;36.93;;
7835;SDS011;3963;42.658;23.298;2022-11-15T06:48:44;115.10;;;38.43;;
7835;SDS011;3963;42.658;23.298;2022-11-15T06:51:10;106.93;;;39.47;;
7835;SDS011;3963;42.658;23.298;2022-11-15T06:53:38;113.40;;;38.93;;
7835;SDS011;3963;42.658;23.298;2022-11-15T06:56:06;112.37;;;41.57;;
7835;SDS011;3963;42.658;23.298;2022-11-15T06:58:34;112.40;;;41.10;;
7835;SDS011;3963;42.658;23.298;2022-11-15T07:01:01;111.83;;;38.93;;
7835;SDS011;3963;42.658;23.298;2022-11-15T07:03:30;114.73;;;42.00;;
7835;SDS011;3963;42.658;23.298;2022-11-15T07:05:57;105.23;;;42.40;;
7835;SDS011;3963;42.658;23.298;2022-11-15T07:08:24;125.03;;;45.67;;
7835;SDS011;3963;42.658;23.298;2022-11-15T07:10:58;116.80;;;42.93;;
7835;SDS011;3963;42.658;23.298;2022-11-15T07:13:27;120.27;;;40.97;;
7835;SDS011;3963;42.658;23.298;2022-11-15T07:15:55;126.90;;;44.17;;
7835;SDS011;3963;42.658;23.298;2022-11-15T07:18:22;136.73;;;46.07;;
7835;SDS011;3963;42.658;23.298;2022-11-15T07:20:48;117.60;;;45.60;;
7835;SDS011;3963;42.658;23.298;2022-11-15T07:23:15;126.37;;;47.00;;
7835;SDS011;3963;42.658;23.298;2022-11-15T07:25:42;142.60;;;44.23;;
7835;SDS011;3963;42.658;23.298;2022-11-15T07:28:10;124.87;;;43.77;;
7835;SDS011;3963;42.658;23.298;2022-11-15T07:30:37;120.70;;;45.53;;
7835;SDS011;3963;42.658;23.298;2022-11-15T07:33:03;123.87;;;44.27;;
7835;SDS011;3963;42.658;23.298;2022-11-15T07:35:30;115.97;;;43.50;;
7835;SDS011;3963;42.658;23.298;2022-11-15T07:37:57;122.17;;;45.73;;
7835;SDS011;3963;42.658;23.298;2022-11-15T07:40:25;121.00;;;44.97;;
7835;SDS011;3963;42.658;23.298;2022-11-15T07:42:52;114.97;;;44.83;;
7835;SDS011;3963;42.658;23.298;2022-11-15T07:45:26;125.40;;;42.63;;
7835;SDS011;3963;42.658;23.298;2022-11-15T07:47:53;117.00;;;44.33;;
7835;SDS011;3963;42.658;23.298;2022-11-15T07:50:21;136.93;;;47.77;;
7835;SDS011;3963;42.658;23.298;2022-11-15T07:52:53;131.37;;;47.67;;
7835;SDS011;3963;42.658;23.298;2022-11-15T07:55:21;146.23;;;49.30;;
7835;SDS011;3963;42.658;23.298;2022-11-15T07:57:49;154.67;;;50.97;;
7835;SDS011;3963;42.658;23.298;2022-11-15T08:00:16;145.97;;;49.83;;
7835;SDS011;3963;42.658;23.298;2022-11-15T08:02:45;150.73;;;53.90;;
7835;SDS011;3963;42.658;23.298;2022-11-15T08:05:12;142.67;;;51.67;;
7835;SDS011;3963;42.658;23.298;2022-11-15T08:07:39;137.73;;;50.93;;
7835;SDS011;3963;42.658;23.298;2022-11-15T08:10:07;153.67;;;52.40;;
7835;SDS011;3963;42.658;23.298;2022-11-15T08:12:34;148.33;;;55.47;;
7835;SDS011;3963;42.658;23.298;2022-11-15T08:15:01;160.77;;;54.67;;
7835;SDS011;3963;42.658;23.298;2022-11-15T08:17:28;144.97;;;52.37;;
7835;SDS011;3963;42.658;23.298;2022-11-15T08:19:59;146.23;;;52.73;;
7835;SDS011;3963;42.658;23.298;2022-11-15T08:22:26;123.13;;;50.90;;
7835;SDS011;3963;42.658;23.298;2022-11-15T08:24:52;144.13;;;54.60;;
7835;SDS011;3963;42.658;23.298;2022-11-15T08:27:19;128.63;;;50.90;;
7835;SDS011;3963;42.658;23.298;2022-11-15T08:29:46;140.83;;;52.67;;
7835;SDS011;3963;42.658;23.298;2022-11-15T08:32:14;128.57;;;47.27;;
7835;SDS011;3963;42.658;23.298;2022-11-15T08:34:42;128.83;;;49.17;;
7835;SDS011;3963;42.658;23.298;2022-11-15T08:37:11;116.43;;;45.93;;
7835;SDS011;3963;42.658;23.298;2022-11-15T08:39:37;117.43;;;46.70;;
7835;SDS011;3963;42.658;23.298;2022-11-15T08:42:04;111.57;;;44.93;;
7835;SDS011;3963;42.658;23.298;2022-11-15T08:44:31;130.83;;;49.10;;
7835;SDS011;3963;42.658;23.298;2022-11-15T08:46:58;139.60;;;48.80;;
7835;SDS011;3963;42.658;23.298;2022-11-15T08:49:24;130.90;;;48.80;;
7835;SDS011;3963;42.658;23.298;2022-11-15T08:51:51;126.77;;;49.43;;
7835;SDS011;3963;42.658;23.298;2022-11-15T08:54:19;125.47;;;48.77;;
7835;SDS011;3963;42.658;23.298;2022-11-15T08:56:46;125.37;;;49.47;;
7835;SDS011;3963;42.658;23.298;2022-11-15T08:59:13;135.33;;;51.37;;
7835;SDS011;3963;42.658;23.298;2022-11-15T09:01:40;138.33;;;51.67;;
7835;SDS011;3963;42.658;23.298;2022-11-15T09:04:07;129.50;;;54.10;;
7835;SDS011;3963;42.658;23.298;2022-11-15T09:06:33;138.67;;;51.00;;
7835;SDS011;3963;42.658;23.298;2022-11-15T09:09:00;123.97;;;50.50;;
7835;SDS011;3963;42.658;23.298;2022-11-15T09:11:29;149.17;;;54.17;;
7835;SDS011;3963;42.658;23.298;2022-11-15T09:13:57;149.57;;;53.30;;
7835;SDS011;3963;42.658;23.298;2022-11-15T09:16:23;149.57;;;54.80;;
7835;SDS011;3963;42.658;23.298;2022-11-15T09:18:50;129.83;;;52.37;;
7835;SDS011;3963;42.658;23.298;2022-11-15T09:21:17;132.87;;;54.57;;
7835;SDS011;3963;42.658;23.298;2022-11-15T09:23:44;133.10;;;56.13;;
7835;SDS011;3963;42.658;23.298;2022-11-15T09:26:10;138.27;;;56.87;;
7835;SDS011;3963;42.658;23.298;2022-11-15T09:28:40;136.13;;;55.50;;
7835;SDS011;3963;42.658;23.298;2022-11-15T09:31:07;138.40;;;52.97;;
7835;SDS011;3963;42.658;23.298;2022-11-15T09:33:34;138.10;;;53.77;;
7835;SDS011;3963;42.658;23.298;2022-11-15T09:36:02;137.40;;;56.23;;
7835;SDS011;3963;42.658;23.298;2022-11-15T09:38:29;147.37;;;55.63;;
7835;SDS011;3963;42.658;23.298;2022-11-15T09:40:59;156.53;;;57.40;;
7835;SDS011;3963;42.658;23.298;2022-11-15T09:43:46;147.03;;;56.70;;
7835;SDS011;3963;42.658;23.298;2022-11-15T09:46:22;148.37;;;56.40;;
7835;SDS011;3963;42.658;23.298;2022-11-15T09:48:58;142.97;;;55.13;;
7835;SDS011;3963;42.658;23.298;2022-11-15T09:51:28;139.97;;;54.70;;
7835;SDS011;3963;42.658;23.298;2022-11-15T09:54:04;140.07;;;56.03;;
7835;SDS011;3963;42.658;23.298;2022-11-15T09:56:37;150.93;;;58.83;;
7835;SDS011;3963;42.658;23.298;2022-11-15T09:59:26;146.67;;;55.17;;
7835;SDS011;3963;42.658;23.298;2022-11-15T10:02:08;141.47;;;54.60;;
7835;SDS011;3963;42.658;23.298;2022-11-15T10:04:46;143.33;;;55.70;;
7835;SDS011;3963;42.658;23.298;2022-11-15T10:07:14;141.10;;;55.03;;
7835;SDS011;3963;42.658;23.298;2022-11-15T10:09:45;138.57;;;54.00;;
7835;SDS011;3963;42.658;23.298;2022-11-15T10:12:17;140.90;;;56.17;;
7835;SDS011;3963;42.658;23.298;2022-11-15T10:14:46;127.93;;;52.00;;
7835;SDS011;3963;42.658;23.298;2022-11-15T10:17:29;146.80;;;55.87;;
7835;SDS011;3963;42.658;23.298;2022-11-15T10:20:12;140.40;;;54.53;;
7835;SDS011;3963;42.658;23.298;2022-11-15T10:22:46;135.53;;;54.43;;
7835;SDS011;3963;42.658;23.298;2022-11-15T10:25:18;144.93;;;56.33;;
7835;SDS011;3963;42.658;23.298;2022-11-15T10:27:50;146.17;;;58.67;;
7835;SDS011;3963;42.658;23.298;2022-11-15T10:30:21;161.57;;;57.60;;
7835;SDS011;3963;42.658;23.298;2022-11-15T10:32:49;142.10;;;56.47;;
7835;SDS011;3963;42.658;23.298;2022-11-15T10:35:18;146.23;;;57.30;;
7835;SDS011;3963;42.658;23.298;2022-11-15T10:37:47;153.23;;;57.30;;
7835;SDS011;3963;42.658;23.298;2022-11-15T10:40:18;141.03;;;57.23;;
7835;SDS011;3963;42.658;23.298;2022-11-15T10:42:47;145.27;;;54.87;;
7835;SDS011;3963;42.658;23.298;2022-11-15T10:45:24;136.67;;;53.97;;
7835;SDS011;3963;42.658;23.298;2022-11-15T10:47:53;128.97;;;51.97;;
7835;SDS011;3963;42.658;23.298;2022-11-15T10:50:26;126.20;;;51.00;;
7835;SDS011;3963;42.658;23.298;2022-11-15T10:52:55;131.10;;;52.67;;
7835;SDS011;3963;42.658;23.298;2022-11-15T10:55:23;116.97;;;50.03;;
7835;SDS011;3963;42.658;23.298;2022-11-15T10:57:53;107.50;;;48.00;;
7835;SDS011;3963;42.658;23.298;2022-11-15T11:00:30;107.70;;;48.63;;
7835;SDS011;3963;42.658;23.298;2022-11-15T11:03:00;105.00;;;46.17;;
7835;SDS011;3963;42.658;23.298;2022-11-15T11:05:31;91.90;;;43.80;;
7835;SDS011;3963;42.658;23.298;2022-11-15T11:07:59;92.60;;;43.53;;
7835;SDS011;3963;42.658;23.298;2022-11-15T11:10:28;86.23;;;42.33;;
7835;SDS011;3963;42.658;23.298;2022-11-15T11:12:55;85.90;;;43.30;;
7835;SDS011;3963;42.658;23.298;2022-11-15T11:15:22;87.30;;;41.43;;
7835;SDS011;3963;42.658;23.298;2022-11-15T11:18:01;80.23;;;38.80;;
7835;SDS011;3963;42.658;23.298;2022-11-15T11:20:36;85.17;;;41.00;;
7835;SDS011;3963;42.658;23.298;2022-11-15T11:23:14;88.43;;;42.90;;
7835;SDS011;3963;42.658;23.298;2022-11-15T11:25:51;85.60;;;41.27;;
7835;SDS011;3963;42.658;23.298;2022-11-15T11:28:30;76.83;;;39.33;;
7835;SDS011;3963;42.658;23.298;2022-11-15T11:31:07;88.93;;;40.93;;
7835;SDS011;3963;42.658;23.298;2022-11-15T11:33:47;79.87;;;40.60;;
7835;SDS011;3963;42.658;23.298;2022-11-15T11:36:21;90.47;;;43.33;;
7835;SDS011;3963;42.658;23.298;2022-11-15T11:39:02;89.00;;;43.23;;
7835;SDS011;3963;42.658;23.298;2022-11-15T11:41:51;78.83;;;43.00;;
7835;SDS011;3963;42.658;23.298;2022-11-15T11:44:30;82.53;;;43.77;;
7835;SDS011;3963;42.658;23.298;2022-11-15T11:47:00;82.40;;;42.17;;
7835;SDS011;3963;42.658;23.298;2022-11-15T11:49:34;90.40;;;44.27;;
7835;SDS011;3963;42.658;23.298;2022-11-15T11:52:09;87.07;;;43.87;;
7835;SDS011;3963;42.658;23.298;2022-11-15T11:54:42;94.43;;;43.47;;
7835;SDS011;3963;42.658;23.298;2022-11-15T11:57:17;88.57;;;42.93;;
7835;SDS011;3963;42.658;23.298;2022-11-15T11:59:54;90.90;;;45.53;;
7835;SDS011;3963;42.658;23.298;2022-11-15T12:02:26;89.57;;;45.40;;
7835;SDS011;3963;42.658;23.298;2022-11-15T12:05:01;88.13;;;44.93;;
7835;SDS011;3963;42.658;23.298;2022-11-15T12:07:35;85.27;;;44.63;;
7835;SDS011;3963;42.658;23.298;2022-11-15T12:10:05;96.70;;;46.73;;
7835;SDS011;3963;42.658;23.298;2022-11-15T12:12:44;95.60;;;47.10;;
7835;SDS011;3963;42.658;23.298;2022-11-15T12:15:17;95.20;;;46.77;;
7835;SDS011;3963;42.658;23.298;2022-11-15T12:17:45;95.07;;;46.47;;
7835;SDS011;3963;42.658;23.298;2022-11-15T12:20:16;101.03;;;49.13;;
7835;SDS011;3963;42.658;23.298;2022-11-15T12:22:47;100.50;;;48.43;;
7835;SDS011;3963;42.658;23.298;2022-11-15T12:25:20;89.03;;;47.23;;
7835;SDS011;3963;42.658;23.298;2022-11-15T12:27:51;98.37;;;46.87;;
7835;SDS011;3963;42.658;23.298;2022-11-15T12:30:22;87.30;;;44.77;;
7835;SDS011;3963;42.658;23.298;2022-11-15T12:32:52;90.47;;;44.80;;
7835;SDS011;3963;42.658;23.298;2022-11-15T12:35:27;92.57;;;45.13;;
7835;SDS011;3963;42.658;23.298;2022-11-15T12:37:59;89.27;;;42.70;;
7835;SDS011;3963;42.658;23.298;2022-11-15T12:40:27;86.43;;;42.13;;
7835;SDS011;3963;42.658;23.298;2022-11-15T12:46:13;86.30;;;40.67;;
7835;SDS011;3963;42.658;23.298;2022-11-15T12:48:48;93.27;;;42.60;;
7835;SDS011;3963;42.658;23.298;2022-11-15T12:51:22;85.53;;;44.03;;
7835;SDS011;3963;42.658;23.298;2022-11-15T12:57:30;82.90;;;41.97;;
7835;SDS011;3963;42.658;23.298;2022-11-15T12:59:59;90.10;;;42.33;;
7835;SDS011;3963;42.658;23.298;2022-11-15T13:02:29;87.30;;;43.00;;
7835;SDS011;3963;42.658;23.298;2022-11-15T13:08:00;83.67;;;45.03;;
7835;SDS011;3963;42.658;23.298;2022-11-15T13:10:30;264.23;;;147.07;;
7835;SDS011;3963;42.658;23.298;2022-11-15T13:13:00;90.97;;;46.90;;
7835;SDS011;3963;42.658;23.298;2022-11-15T13:15:39;85.47;;;44.77;;
7835;SDS011;3963;42.658;23.298;2022-11-15T13:18:31;87.53;;;41.87;;
7835;SDS011;3963;42.658;23.298;2022-11-15T13:21:03;83.73;;;41.70;;
7835;SDS011;3963;42.658;23.298;2022-11-15T13:23:53;86.83;;;43.43;;
7835;SDS011;3963;42.658;23.298;2022-11-15T13:26:21;86.10;;;40.73;;
7835;SDS011;3963;42.658;23.298;2022-11-15T13:28:50;84.10;;;42.30;;
7835;SDS011;3963;42.658;23.298;2022-11-15T13:34:16;94.87;;;44.83;;
7835;SDS011;3963;42.658;23.298;2022-11-15T13:36:49;86.50;;;42.97;;
7835;SDS011;3963;42.658;23.298;2022-11-15T13:39:24;85.30;;;41.60;;
7835;SDS011;3963;42.658;23.298;2022-11-15T13:41:53;83.27;;;41.60;;
7835;SDS011;3963;42.658;23.298;2022-11-15T13:44:22;80.00;;;41.93;;
7835;SDS011;3963;42.658;23.298;2022-11-15T13:47:00;88.20;;;41.37;;
7835;SDS011;3963;42.658;23.298;2022-11-15T13:49:28;82.73;;;40.23;;
7835;SDS011;3963;42.658;23.298;2022-11-15T13:51:57;86.20;;;42.87;;
7835;SDS011;3963;42.658;23.298;2022-11-15T13:54:26;81.57;;;43.03;;
7835;SDS011;3963;42.658;23.298;2022-11-15T13:56:57;78.87;;;41.50;;
7835;SDS011;3963;42.658;23.298;2022-11-15T13:59:30;79.50;;;42.60;;
7835;SDS011;3963;42.658;23.298;2022-11-15T14:02:01;81.53;;;41.50;;
7835;SDS011;3963;42.658;23.298;2022-11-15T14:04:37;84.20;;;41.23;;
7835;SDS011;3963;42.658;23.298;2022-11-15T14:07:14;77.57;;;41.17;;
7835;SDS011;3963;42.658;23.298;2022-11-15T14:09:43;82.20;;;42.87;;
7835;SDS011;3963;42.658;23.298;2022-11-15T14:12:25;83.00;;;41.63;;
7835;SDS011;3963;42.658;23.298;2022-11-15T14:14:55;85.43;;;43.43;;
7835;SDS011;3963;42.658;23.298;2022-11-15T14:17:33;84.23;;;42.10;;
7835;SDS011;3963;42.658;23.298;2022-11-15T14:20:01;81.27;;;41.63;;
7835;SDS011;3963;42.658;23.298;2022-11-15T14:22:50;86.40;;;43.10;;
7835;SDS011;3963;42.658;23.298;2022-11-15T14:25:19;85.17;;;42.30;;
7835;SDS011;3963;42.658;23.298;2022-11-15T14:30:42;89.20;;;43.43;;
7835;SDS011;3963;42.658;23.298;2022-11-15T14:33:22;91.63;;;44.47;;
7835;SDS011;3963;42.658;23.298;2022-11-15T14:35:50;99.47;;;45.93;;
7835;SDS011;3963;42.658;23.298;2022-11-15T14:38:17;87.37;;;44.57;;
7835;SDS011;3963;42.658;23.298;2022-11-15T14:40:44;95.23;;;45.73;;
7835;SDS011;3963;42.658;23.298;2022-11-15T14:43:12;88.43;;;43.90;;
7835;SDS011;3963;42.658;23.298;2022-11-15T14:45:39;84.77;;;42.53;;
7835;SDS011;3963;42.658;23.298;2022-11-15T14:48:07;96.47;;;43.10;;
7835;SDS011;3963;42.658;23.298;2022-11-15T14:50:34;85.30;;;42.77;;
7835;SDS011;3963;42.658;23.298;2022-11-15T14:53:01;96.33;;;42.67;;
7835;SDS011;3963;42.658;23.298;2022-11-15T14:55:29;93.60;;;46.27;;
7835;SDS011;3963;42.658;23.298;2022-11-15T14:58:00;112.27;;;51.17;;
7835;SDS011;3963;42.658;23.298;2022-11-15T15:00:28;100.07;;;46.80;;
7835;SDS011;3963;42.658;23.298;2022-11-15T15:02:55;88.80;;;45.23;;
7835;SDS011;3963;42.658;23.298;2022-11-15T15:05:25;91.30;;;44.53;;
7835;SDS011;3963;42.658;23.298;2022-11-15T15:07:56;98.50;;;47.93;;